SVA211 OEJN-LIMC
Flight info
| Callsign | SVA211 |
|---|---|
| Flight time | N/A |
| Altitude | 36000 |
| Route | BOMOX M686 OTEMO T55 KUNKI P751 METRU DCT TRL DCT LATAN DCT LOMED DCT BEROK DCT MIVKI DCT GOLAS T648 MEBUR |
| Aircraft | A333/H-SDE3GHIJ2J3J5M1RVWXY/LB2D1 |
Departure
| Time | N/A |
|---|---|
| Airport | King Abdulaziz International Airport (OEJN) |
Arrival
| Time | 2026-05-07 16:03 |
|---|---|
| Airport | Milan Malpensa International Airport (LIMC) |
| Time | Latitude | Longitude | Altitude | Speed | Heading |
|---|---|---|---|---|---|
| 2026-05-07 14:13 | 38.97980 | 19.57484 | 36076 ft | 379 kts | 301° |
| 2026-05-07 14:14 | 38.99495 | 19.54708 | 36070 ft | 381 kts | 300° |
| 2026-05-07 14:14 | 39.02027 | 19.50069 | 36068 ft | 382 kts | 300° |
| 2026-05-07 14:15 | 39.05574 | 19.43548 | 36071 ft | 382 kts | 300° |
| 2026-05-07 14:15 | 39.08609 | 19.37968 | 36077 ft | 379 kts | 300° |
| 2026-05-07 14:16 | 39.11643 | 19.32403 | 36072 ft | 380 kts | 300° |
| 2026-05-07 14:16 | 39.14182 | 19.27725 | 36072 ft | 380 kts | 300° |
| 2026-05-07 14:17 | 39.17558 | 19.21115 | 36065 ft | 381 kts | 295° |
| 2026-05-07 14:17 | 39.19934 | 19.16237 | 36075 ft | 384 kts | 293° |
| 2026-05-07 14:18 | 39.22785 | 19.10381 | 36152 ft | 385 kts | 292° |
| 2026-05-07 14:18 | 39.24199 | 19.07503 | 36049 ft | 388 kts | 292° |
| 2026-05-07 14:18 | 39.25685 | 19.04551 | 36028 ft | 386 kts | 293° |
| 2026-05-07 14:19 | 39.28771 | 18.98826 | 36060 ft | 391 kts | 298° |
| 2026-05-07 14:19 | 39.30522 | 18.96171 | 36261 ft | 387 kts | 298° |
| 2026-05-07 14:19 | 39.32277 | 18.93537 | 36325 ft | 386 kts | 299° |
| 2026-05-07 14:20 | 39.35779 | 18.88317 | 36276 ft | 388 kts | 299° |
| 2026-05-07 14:20 | 39.37544 | 18.85706 | 36506 ft | 382 kts | 299° |
| 2026-05-07 14:20 | 39.39274 | 18.83164 | 36902 ft | 372 kts | 299° |
| 2026-05-07 14:20 | 39.40967 | 18.80688 | 37287 ft | 363 kts | 299° |
| 2026-05-07 14:21 | 39.42626 | 18.78268 | 37572 ft | 356 kts | 298° |
| 2026-05-07 14:21 | 39.44253 | 18.75888 | 37824 ft | 350 kts | 298° |
| 2026-05-07 14:21 | 39.45842 | 18.73551 | 38029 ft | 344 kts | 298° |
| 2026-05-07 14:22 | 39.48978 | 18.68889 | 38064 ft | 343 kts | 298° |
| 2026-05-07 14:22 | 39.52090 | 18.64209 | 38056 ft | 343 kts | 297° |
| 2026-05-07 14:23 | 39.55167 | 18.59512 | 38050 ft | 340 kts | 295° |
| 2026-05-07 14:23 | 39.58158 | 18.54813 | 38053 ft | 336 kts | 295° |
| 2026-05-07 14:24 | 39.61148 | 18.50186 | 38071 ft | 334 kts | 302° |
| 2026-05-07 14:24 | 39.64407 | 18.45728 | 38054 ft | 345 kts | 307° |
| 2026-05-07 14:25 | 39.67839 | 18.41305 | 38059 ft | 350 kts | 304° |
| 2026-05-07 14:25 | 39.71142 | 18.36591 | 38054 ft | 355 kts | 303° |
| 2026-05-07 14:26 | 39.74361 | 18.31708 | 38053 ft | 354 kts | 302° |
| 2026-05-07 14:26 | 39.77542 | 18.26848 | 38053 ft | 352 kts | 302° |
| 2026-05-07 14:27 | 39.80711 | 18.22022 | 38054 ft | 350 kts | 302° |
| 2026-05-07 14:27 | 39.83871 | 18.17179 | 38055 ft | 351 kts | 302° |
| 2026-05-07 14:28 | 39.87040 | 18.12335 | 38045 ft | 351 kts | 302° |
| 2026-05-07 14:28 | 39.90196 | 18.07501 | 38045 ft | 349 kts | 302° |
| 2026-05-07 14:29 | 39.93342 | 18.02699 | 38045 ft | 348 kts | 302° |
| 2026-05-07 14:29 | 39.96471 | 17.97880 | 38048 ft | 350 kts | 302° |
| 2026-05-07 14:30 | 39.99587 | 17.93068 | 38046 ft | 350 kts | 302° |
| 2026-05-07 14:30 | 40.02737 | 17.88221 | 38045 ft | 350 kts | 302° |
| 2026-05-07 14:31 | 40.05877 | 17.83389 | 38045 ft | 350 kts | 301° |
| 2026-05-07 14:31 | 40.09009 | 17.78533 | 38044 ft | 349 kts | 302° |
| 2026-05-07 14:32 | 40.12160 | 17.73666 | 38046 ft | 352 kts | 302° |
| 2026-05-07 14:32 | 40.15326 | 17.68778 | 38044 ft | 352 kts | 302° |
| 2026-05-07 14:33 | 40.18488 | 17.63892 | 38046 ft | 352 kts | 302° |
| 2026-05-07 14:33 | 40.21653 | 17.58973 | 38044 ft | 354 kts | 302° |
| 2026-05-07 14:34 | 40.24812 | 17.54041 | 38045 ft | 354 kts | 302° |
| 2026-05-07 14:34 | 40.27993 | 17.49088 | 38044 ft | 356 kts | 302° |
| 2026-05-07 14:35 | 40.31186 | 17.44100 | 38045 ft | 358 kts | 302° |
| 2026-05-07 14:35 | 40.34396 | 17.39077 | 38045 ft | 360 kts | 302° |
| 2026-05-07 14:36 | 40.37624 | 17.34026 | 38045 ft | 362 kts | 301° |
| 2026-05-07 14:36 | 40.40864 | 17.28945 | 38045 ft | 363 kts | 301° |
| 2026-05-07 14:37 | 40.44107 | 17.23853 | 38045 ft | 365 kts | 301° |
| 2026-05-07 14:37 | 40.48996 | 17.16146 | 38045 ft | 367 kts | 301° |
| 2026-05-07 14:38 | 40.52264 | 17.10984 | 38045 ft | 368 kts | 301° |
| 2026-05-07 14:38 | 40.55536 | 17.05807 | 38037 ft | 368 kts | 301° |
| 2026-05-07 14:39 | 40.58792 | 17.00644 | 38036 ft | 370 kts | 301° |
| 2026-05-07 14:39 | 40.62082 | 16.95423 | 38025 ft | 371 kts | 301° |
| 2026-05-07 14:40 | 40.65383 | 16.90184 | 38024 ft | 372 kts | 301° |
| 2026-05-07 14:40 | 40.68684 | 16.84936 | 38017 ft | 372 kts | 301° |
| 2026-05-07 14:41 | 40.71986 | 16.79671 | 38017 ft | 373 kts | 301° |
| 2026-05-07 14:41 | 40.75291 | 16.74389 | 38017 ft | 374 kts | 301° |
| 2026-05-07 14:42 | 40.78605 | 16.69087 | 38020 ft | 375 kts | 301° |
| 2026-05-07 14:42 | 40.81917 | 16.63774 | 38017 ft | 375 kts | 301° |
| 2026-05-07 14:43 | 40.85238 | 16.58447 | 38009 ft | 376 kts | 301° |
| 2026-05-07 14:43 | 40.88562 | 16.53106 | 38009 ft | 376 kts | 301° |
| 2026-05-07 14:44 | 40.91888 | 16.47744 | 38008 ft | 378 kts | 301° |
| 2026-05-07 14:44 | 40.95224 | 16.42361 | 37999 ft | 379 kts | 301° |
| 2026-05-07 14:45 | 40.98571 | 16.36950 | 37999 ft | 380 kts | 301° |
| 2026-05-07 14:45 | 41.01882 | 16.31482 | 37997 ft | 381 kts | 298° |
| 2026-05-07 14:46 | 41.05152 | 16.25946 | 37999 ft | 383 kts | 298° |
| 2026-05-07 14:46 | 41.08466 | 16.20453 | 38008 ft | 385 kts | 299° |
| 2026-05-07 14:47 | 41.11854 | 16.14918 | 38007 ft | 387 kts | 299° |
| 2026-05-07 14:47 | 41.15264 | 16.09367 | 38007 ft | 389 kts | 299° |
| 2026-05-07 14:48 | 41.18679 | 16.03792 | 38007 ft | 390 kts | 299° |
| 2026-05-07 14:48 | 41.22106 | 15.98180 | 38008 ft | 392 kts | 298° |
| 2026-05-07 14:49 | 41.25542 | 15.92545 | 38008 ft | 393 kts | 298° |
| 2026-05-07 14:49 | 41.28986 | 15.86887 | 38001 ft | 394 kts | 298° |
| 2026-05-07 14:50 | 41.32434 | 15.81214 | 37999 ft | 395 kts | 298° |
| 2026-05-07 14:50 | 41.35887 | 15.75517 | 37999 ft | 396 kts | 298° |
| 2026-05-07 14:51 | 41.39350 | 15.69793 | 37995 ft | 397 kts | 298° |
| 2026-05-07 14:51 | 41.42810 | 15.64061 | 37978 ft | 397 kts | 298° |
| 2026-05-07 14:52 | 41.46278 | 15.58308 | 37978 ft | 399 kts | 298° |
| 2026-05-07 14:52 | 41.49751 | 15.52537 | 37978 ft | 399 kts | 298° |
| 2026-05-07 14:53 | 41.53218 | 15.46767 | 37967 ft | 398 kts | 298° |
| 2026-05-07 14:53 | 41.56683 | 15.40986 | 37976 ft | 399 kts | 298° |
| 2026-05-07 14:54 | 41.60084 | 15.35165 | 37978 ft | 397 kts | 296° |
| 2026-05-07 14:54 | 41.63450 | 15.29305 | 37981 ft | 398 kts | 296° |
| 2026-05-07 14:55 | 41.66806 | 15.23430 | 37985 ft | 397 kts | 294° |
| 2026-05-07 14:55 | 41.70138 | 15.17604 | 37958 ft | 397 kts | 294° |
| 2026-05-07 14:56 | 41.73543 | 15.11785 | 37978 ft | 397 kts | 295° |
| 2026-05-07 14:56 | 41.76976 | 15.05984 | 37979 ft | 398 kts | 295° |
| 2026-05-07 14:57 | 41.80415 | 15.00177 | 37981 ft | 397 kts | 295° |
| 2026-05-07 14:57 | 41.83845 | 14.94373 | 37979 ft | 397 kts | 294° |
| 2026-05-07 14:58 | 41.87273 | 14.88559 | 37978 ft | 397 kts | 294° |
| 2026-05-07 14:58 | 41.90689 | 14.82750 | 37979 ft | 397 kts | 294° |
| 2026-05-07 14:59 | 41.94101 | 14.76937 | 37983 ft | 396 kts | 294° |
| 2026-05-07 14:59 | 41.97512 | 14.71120 | 37982 ft | 396 kts | 294° |
| 2026-05-07 15:00 | 42.00916 | 14.65301 | 37981 ft | 396 kts | 294° |
| 2026-05-07 15:00 | 42.04322 | 14.59480 | 37981 ft | 396 kts | 294° |
| 2026-05-07 15:01 | 42.07736 | 14.53655 | 37980 ft | 396 kts | 294° |
| 2026-05-07 15:01 | 42.11136 | 14.47823 | 37992 ft | 396 kts | 294° |
| 2026-05-07 15:02 | 42.14528 | 14.41972 | 37988 ft | 396 kts | 294° |
| 2026-05-07 15:02 | 42.17899 | 14.36141 | 37991 ft | 397 kts | 294° |
| 2026-05-07 15:03 | 42.21291 | 14.30257 | 37990 ft | 398 kts | 294° |
| 2026-05-07 15:03 | 42.24682 | 14.24366 | 37991 ft | 398 kts | 294° |
| 2026-05-07 15:04 | 42.28074 | 14.18457 | 37989 ft | 398 kts | 294° |
| 2026-05-07 15:04 | 42.30920 | 14.13499 | 37990 ft | 398 kts | 294° |
| 2026-05-07 15:05 | 42.34864 | 14.06617 | 37989 ft | 399 kts | 293° |
| 2026-05-07 15:05 | 42.37708 | 14.01650 | 37990 ft | 399 kts | 294° |
| 2026-05-07 15:06 | 42.41101 | 13.95716 | 37990 ft | 398 kts | 293° |
| 2026-05-07 15:06 | 42.44489 | 13.89774 | 37988 ft | 399 kts | 293° |
| 2026-05-07 15:07 | 42.47852 | 13.83865 | 37989 ft | 399 kts | 293° |
| 2026-05-07 15:07 | 42.51257 | 13.77875 | 38002 ft | 399 kts | 293° |
| 2026-05-07 15:08 | 42.54615 | 13.71955 | 37998 ft | 399 kts | 293° |
| 2026-05-07 15:08 | 42.58021 | 13.65934 | 37999 ft | 399 kts | 293° |
| 2026-05-07 15:09 | 42.61406 | 13.59943 | 37995 ft | 400 kts | 293° |
| 2026-05-07 15:09 | 42.64786 | 13.53951 | 38004 ft | 399 kts | 293° |
| 2026-05-07 15:10 | 42.68158 | 13.47967 | 38009 ft | 399 kts | 293° |
| 2026-05-07 15:10 | 42.71504 | 13.42015 | 38001 ft | 398 kts | 293° |
| 2026-05-07 15:11 | 42.74865 | 13.36035 | 38006 ft | 398 kts | 293° |
| 2026-05-07 15:11 | 42.78212 | 13.30047 | 38000 ft | 398 kts | 293° |
| 2026-05-07 15:12 | 42.81555 | 13.24049 | 38006 ft | 398 kts | 293° |
| 2026-05-07 15:12 | 42.84907 | 13.18016 | 37989 ft | 399 kts | 293° |
| 2026-05-07 15:13 | 42.88253 | 13.11991 | 37995 ft | 399 kts | 292° |
| 2026-05-07 15:13 | 42.91591 | 13.05945 | 37988 ft | 398 kts | 292° |
| 2026-05-07 15:14 | 42.94924 | 12.99901 | 37981 ft | 400 kts | 292° |
| 2026-05-07 15:14 | 42.98269 | 12.93829 | 37986 ft | 400 kts | 292° |
| 2026-05-07 15:15 | 43.01625 | 12.87731 | 37968 ft | 402 kts | 292° |
| 2026-05-07 15:15 | 43.04985 | 12.81619 | 37962 ft | 402 kts | 292° |
| 2026-05-07 15:16 | 43.08342 | 12.75504 | 37963 ft | 403 kts | 292° |
| 2026-05-07 15:16 | 43.11709 | 12.69363 | 37966 ft | 404 kts | 292° |
| 2026-05-07 15:17 | 43.15076 | 12.63199 | 37979 ft | 405 kts | 292° |
| 2026-05-07 15:17 | 43.18444 | 12.57018 | 37978 ft | 405 kts | 292° |
| 2026-05-07 15:18 | 43.21794 | 12.50866 | 37958 ft | 406 kts | 292° |
| 2026-05-07 15:18 | 43.25168 | 12.44654 | 37977 ft | 406 kts | 292° |
| 2026-05-07 15:19 | 43.28544 | 12.38425 | 37978 ft | 408 kts | 292° |
| 2026-05-07 15:19 | 43.31929 | 12.32169 | 37981 ft | 409 kts | 292° |
| 2026-05-07 15:20 | 43.35315 | 12.25896 | 37984 ft | 409 kts | 292° |
| 2026-05-07 15:20 | 43.38701 | 12.19608 | 37978 ft | 410 kts | 292° |
| 2026-05-07 15:21 | 43.42092 | 12.13297 | 37980 ft | 411 kts | 292° |
| 2026-05-07 15:21 | 43.45487 | 12.06973 | 37982 ft | 411 kts | 292° |
| 2026-05-07 15:22 | 43.48878 | 12.00641 | 37979 ft | 411 kts | 292° |
| 2026-05-07 15:22 | 43.52271 | 11.94287 | 37956 ft | 412 kts | 292° |
| 2026-05-07 15:23 | 43.55661 | 11.87926 | 37975 ft | 412 kts | 292° |
| 2026-05-07 15:23 | 43.59053 | 11.81546 | 37980 ft | 413 kts | 292° |
| 2026-05-07 15:24 | 43.62442 | 11.75154 | 37979 ft | 413 kts | 292° |
| 2026-05-07 15:24 | 43.65828 | 11.68755 | 37981 ft | 413 kts | 292° |
| 2026-05-07 15:25 | 43.69212 | 11.62341 | 37980 ft | 413 kts | 292° |
| 2026-05-07 15:25 | 43.72594 | 11.55915 | 37978 ft | 414 kts | 292° |
| 2026-05-07 15:26 | 43.75983 | 11.49464 | 37987 ft | 415 kts | 292° |
| 2026-05-07 15:26 | 43.79376 | 11.42984 | 37989 ft | 416 kts | 292° |
| 2026-05-07 15:27 | 43.82769 | 11.36491 | 37991 ft | 417 kts | 292° |
| 2026-05-07 15:27 | 43.86166 | 11.29971 | 37964 ft | 418 kts | 291° |
| 2026-05-07 15:28 | 43.89565 | 11.23441 | 37973 ft | 417 kts | 291° |
| 2026-05-07 15:28 | 43.92955 | 11.16915 | 37958 ft | 417 kts | 291° |
| 2026-05-07 15:29 | 43.96341 | 11.10387 | 37980 ft | 417 kts | 291° |
| 2026-05-07 15:29 | 43.99722 | 11.03867 | 37998 ft | 416 kts | 291° |
| 2026-05-07 15:30 | 44.02413 | 10.96913 | 37967 ft | 406 kts | 277° |
| 2026-05-07 15:30 | 44.03398 | 10.93208 | 37418 ft | 414 kts | 287° |
| 2026-05-07 15:30 | 44.04494 | 10.89469 | 36628 ft | 420 kts | 287° |
| 2026-05-07 15:31 | 44.05573 | 10.85679 | 35917 ft | 423 kts | 286° |
| 2026-05-07 15:31 | 44.06577 | 10.81837 | 35292 ft | 422 kts | 283° |
| 2026-05-07 15:31 | 44.07458 | 10.77965 | 34385 ft | 417 kts | 279° |
| 2026-05-07 15:31 | 44.08225 | 10.74083 | 33000 ft | 417 kts | 278° |
| 2026-05-07 15:32 | 44.08954 | 10.70169 | 31508 ft | 420 kts | 278° |
| 2026-05-07 15:32 | 44.09684 | 10.66349 | 30879 ft | 406 kts | 278° |
| 2026-05-07 15:32 | 44.10430 | 10.62570 | 30580 ft | 396 kts | 279° |
| 2026-05-07 15:32 | 44.11162 | 10.58944 | 30156 ft | 392 kts | 279° |
| 2026-05-07 15:33 | 44.11908 | 10.55317 | 29720 ft | 389 kts | 279° |
| 2026-05-07 15:33 | 44.12660 | 10.51728 | 29289 ft | 384 kts | 279° |
| 2026-05-07 15:33 | 44.13411 | 10.48175 | 28852 ft | 380 kts | 280° |
| 2026-05-07 15:33 | 44.14155 | 10.44669 | 28430 ft | 377 kts | 279° |
| 2026-05-07 15:34 | 44.14892 | 10.41177 | 27990 ft | 375 kts | 279° |
| 2026-05-07 15:34 | 44.15621 | 10.37701 | 27554 ft | 374 kts | 279° |
| 2026-05-07 15:34 | 44.16348 | 10.34227 | 27129 ft | 373 kts | 279° |
| 2026-05-07 15:34 | 44.17072 | 10.30772 | 26697 ft | 370 kts | 280° |
| 2026-05-07 15:35 | 44.17791 | 10.27334 | 26278 ft | 369 kts | 279° |
| 2026-05-07 15:35 | 44.18507 | 10.23902 | 25843 ft | 368 kts | 280° |
| 2026-05-07 15:35 | 44.19218 | 10.20487 | 25400 ft | 366 kts | 279° |
| 2026-05-07 15:35 | 44.19925 | 10.17089 | 24966 ft | 364 kts | 279° |
| 2026-05-07 15:36 | 44.20628 | 10.13701 | 24537 ft | 363 kts | 280° |
| 2026-05-07 15:36 | 44.21331 | 10.10335 | 24111 ft | 361 kts | 281° |
| 2026-05-07 15:36 | 44.22270 | 10.07079 | 23679 ft | 365 kts | 290° |
| 2026-05-07 15:36 | 44.23568 | 10.04021 | 23254 ft | 366 kts | 295° |
| 2026-05-07 15:37 | 44.24962 | 10.01063 | 22840 ft | 365 kts | 297° |
| 2026-05-07 15:37 | 44.26408 | 9.98169 | 22418 ft | 363 kts | 298° |
| 2026-05-07 15:37 | 44.27876 | 9.95315 | 21993 ft | 361 kts | 299° |
| 2026-05-07 15:37 | 44.29345 | 9.92487 | 21555 ft | 358 kts | 299° |
| 2026-05-07 15:38 | 44.30799 | 9.89687 | 21120 ft | 355 kts | 299° |
| 2026-05-07 15:38 | 44.32240 | 9.86897 | 20706 ft | 354 kts | 299° |
| 2026-05-07 15:38 | 44.33674 | 9.84103 | 20304 ft | 353 kts | 299° |
| 2026-05-07 15:38 | 44.35099 | 9.81314 | 19892 ft | 352 kts | 299° |
| 2026-05-07 15:39 | 44.36511 | 9.78541 | 19466 ft | 349 kts | 300° |
| 2026-05-07 15:39 | 44.37913 | 9.75781 | 19041 ft | 347 kts | 300° |
| 2026-05-07 15:39 | 44.39308 | 9.73031 | 18646 ft | 346 kts | 300° |
| 2026-05-07 15:39 | 44.40696 | 9.70292 | 18225 ft | 344 kts | 300° |
| 2026-05-07 15:40 | 44.42073 | 9.67573 | 17815 ft | 342 kts | 300° |
| 2026-05-07 15:40 | 44.43445 | 9.64862 | 17403 ft | 341 kts | 300° |
| 2026-05-07 15:40 | 44.44855 | 9.62198 | 16952 ft | 341 kts | 306° |
| 2026-05-07 15:40 | 44.46467 | 9.59763 | 16564 ft | 342 kts | 309° |
| 2026-05-07 15:41 | 44.48126 | 9.57391 | 16143 ft | 339 kts | 309° |
| 2026-05-07 15:41 | 44.49769 | 9.55034 | 15721 ft | 337 kts | 309° |
| 2026-05-07 15:41 | 44.51401 | 9.52687 | 15292 ft | 335 kts | 309° |
| 2026-05-07 15:41 | 44.53018 | 9.50347 | 14837 ft | 334 kts | 309° |
| 2026-05-07 15:42 | 44.54633 | 9.48006 | 14419 ft | 333 kts | 309° |
| 2026-05-07 15:42 | 44.56234 | 9.45673 | 13979 ft | 330 kts | 309° |
| 2026-05-07 15:42 | 44.57821 | 9.43358 | 13547 ft | 329 kts | 309° |
| 2026-05-07 15:42 | 44.59401 | 9.41052 | 13090 ft | 328 kts | 309° |
| 2026-05-07 15:43 | 44.60977 | 9.38748 | 12649 ft | 326 kts | 309° |
| 2026-05-07 15:43 | 44.62544 | 9.36453 | 12226 ft | 326 kts | 309° |
| 2026-05-07 15:43 | 44.64107 | 9.34162 | 11782 ft | 324 kts | 309° |
| 2026-05-07 15:43 | 44.65659 | 9.31887 | 11326 ft | 322 kts | 309° |
| 2026-05-07 15:44 | 44.67197 | 9.29635 | 11041 ft | 313 kts | 309° |
| 2026-05-07 15:44 | 44.68670 | 9.27486 | 10956 ft | 297 kts | 310° |
| 2026-05-07 15:44 | 44.70068 | 9.25454 | 10874 ft | 283 kts | 310° |
| 2026-05-07 15:44 | 44.71423 | 9.23488 | 10739 ft | 276 kts | 309° |
| 2026-05-07 15:45 | 44.72734 | 9.21579 | 10606 ft | 267 kts | 309° |
| 2026-05-07 15:45 | 44.74024 | 9.19687 | 10512 ft | 269 kts | 309° |
| 2026-05-07 15:45 | 44.75323 | 9.17793 | 10220 ft | 270 kts | 311° |
| 2026-05-07 15:45 | 44.76771 | 9.16091 | 9847 ft | 272 kts | 319° |
| 2026-05-07 15:46 | 44.79830 | 9.13015 | 9200 ft | 269 kts | 321° |
| 2026-05-07 15:46 | 44.81356 | 9.11501 | 8865 ft | 268 kts | 321° |
| 2026-05-07 15:46 | 44.82882 | 9.09987 | 8536 ft | 268 kts | 321° |
| 2026-05-07 15:47 | 44.84404 | 9.08469 | 8195 ft | 267 kts | 321° |
| 2026-05-07 15:47 | 44.85914 | 9.06962 | 7882 ft | 266 kts | 320° |
| 2026-05-07 15:47 | 44.87416 | 9.05459 | 7560 ft | 264 kts | 320° |
| 2026-05-07 15:47 | 44.88912 | 9.03964 | 7228 ft | 263 kts | 320° |
| 2026-05-07 15:48 | 44.90401 | 9.02476 | 6898 ft | 262 kts | 321° |
| 2026-05-07 15:48 | 44.91883 | 9.00991 | 6575 ft | 260 kts | 321° |
| 2026-05-07 15:48 | 44.92857 | 9.00016 | 6402 ft | 258 kts | 320° |
| 2026-05-07 15:48 | 44.94298 | 8.98596 | 6308 ft | 248 kts | 323° |
| 2026-05-07 15:49 | 44.95692 | 8.97260 | 6214 ft | 236 kts | 323° |
| 2026-05-07 15:49 | 44.97016 | 8.95975 | 6100 ft | 227 kts | 322° |
| 2026-05-07 15:49 | 44.98291 | 8.94726 | 6005 ft | 218 kts | 322° |
| 2026-05-07 15:49 | 44.99509 | 8.93523 | 5894 ft | 211 kts | 320° |
| 2026-05-07 15:50 | 45.00701 | 8.92305 | 5611 ft | 212 kts | 319° |
| 2026-05-07 15:50 | 45.01892 | 8.91074 | 5315 ft | 212 kts | 319° |
| 2026-05-07 15:50 | 45.03084 | 8.89851 | 5067 ft | 212 kts | 320° |
| 2026-05-07 15:50 | 45.04373 | 8.88829 | 4870 ft | 219 kts | 336° |
| 2026-05-07 15:51 | 45.05893 | 8.88236 | 4846 ft | 231 kts | 343° |
| 2026-05-07 15:51 | 45.07472 | 8.87782 | 4831 ft | 232 kts | 345° |
| 2026-05-07 15:51 | 45.09054 | 8.87359 | 4819 ft | 231 kts | 346° |
| 2026-05-07 15:51 | 45.10636 | 8.86938 | 4789 ft | 231 kts | 346° |
| 2026-05-07 15:52 | 45.12218 | 8.86516 | 4765 ft | 232 kts | 345° |
| 2026-05-07 15:52 | 45.13799 | 8.86091 | 4722 ft | 231 kts | 345° |
| 2026-05-07 15:52 | 45.15377 | 8.85663 | 4686 ft | 231 kts | 345° |
| 2026-05-07 15:52 | 45.16957 | 8.85236 | 4648 ft | 231 kts | 345° |
| 2026-05-07 15:53 | 45.18537 | 8.84808 | 4598 ft | 231 kts | 345° |
| 2026-05-07 15:53 | 45.20118 | 8.84376 | 4561 ft | 231 kts | 345° |
| 2026-05-07 15:53 | 45.21673 | 8.83955 | 4514 ft | 230 kts | 346° |
| 2026-05-07 15:53 | 45.23266 | 8.83523 | 4470 ft | 230 kts | 346° |
| 2026-05-07 15:54 | 45.24817 | 8.83099 | 4438 ft | 230 kts | 346° |
| 2026-05-07 15:54 | 45.26386 | 8.82670 | 4397 ft | 230 kts | 345° |
| 2026-05-07 15:54 | 45.27951 | 8.82242 | 4347 ft | 228 kts | 346° |
| 2026-05-07 15:54 | 45.29474 | 8.81833 | 4285 ft | 216 kts | 346° |
| 2026-05-07 15:55 | 45.30899 | 8.81457 | 4248 ft | 201 kts | 346° |
| 2026-05-07 15:55 | 45.32225 | 8.81111 | 4211 ft | 186 kts | 346° |
| 2026-05-07 15:55 | 45.33446 | 8.80797 | 4153 ft | 172 kts | 346° |
| 2026-05-07 15:55 | 45.34594 | 8.80502 | 3994 ft | 164 kts | 346° |
| 2026-05-07 15:56 | 45.35651 | 8.80234 | 3980 ft | 144 kts | 346° |
| 2026-05-07 15:56 | 45.36578 | 8.80034 | 3846 ft | 132 kts | 348° |
| 2026-05-07 15:56 | 45.37534 | 8.79855 | 3417 ft | 144 kts | 349° |
| 2026-05-07 15:56 | 45.38550 | 8.79673 | 3081 ft | 148 kts | 349° |
| 2026-05-07 15:57 | 45.39548 | 8.79502 | 2896 ft | 138 kts | 349° |
| 2026-05-07 15:57 | 45.40456 | 8.79339 | 2876 ft | 134 kts | 345° |
| 2026-05-07 15:57 | 45.41341 | 8.79090 | 2724 ft | 130 kts | 349° |
| 2026-05-07 15:57 | 45.42249 | 8.79085 | 2519 ft | 141 kts | 2° |
| 2026-05-07 15:58 | 45.43278 | 8.79067 | 2428 ft | 151 kts | 351° |
| 2026-05-07 15:58 | 45.44464 | 8.78805 | 2421 ft | 178 kts | 349° |
| 2026-05-07 15:58 | 45.45587 | 8.78431 | 2491 ft | 155 kts | 344° |
| 2026-05-07 15:58 | 45.46606 | 8.78054 | 2295 ft | 149 kts | 345° |
| 2026-05-07 15:59 | 45.47599 | 8.77713 | 2062 ft | 145 kts | 346° |
| 2026-05-07 15:59 | 45.48574 | 8.77403 | 1805 ft | 143 kts | 346° |
| 2026-05-07 15:59 | 45.49540 | 8.77113 | 1538 ft | 141 kts | 346° |
| 2026-05-07 15:59 | 45.50454 | 8.76862 | 1409 ft | 127 kts | 348° |
| 2026-05-07 16:00 | 45.51342 | 8.76662 | 1327 ft | 126 kts | 349° |
| 2026-05-07 16:00 | 45.52196 | 8.76498 | 1430 ft | 136 kts | 348° |
| 2026-05-07 16:00 | 45.53251 | 8.76143 | 1678 ft | 176 kts | 342° |
| 2026-05-07 16:00 | 45.54480 | 8.75706 | 1829 ft | 175 kts | 343° |
| 2026-05-07 16:01 | 45.55587 | 8.75393 | 1806 ft | 150 kts | 348° |
| 2026-05-07 16:01 | 45.56570 | 8.75188 | 1635 ft | 138 kts | 349° |
| 2026-05-07 16:01 | 45.57494 | 8.74941 | 1417 ft | 132 kts | 347° |
| 2026-05-07 16:01 | 45.58445 | 8.74683 | 1362 ft | 139 kts | 350° |
| 2026-05-07 16:02 | 45.59376 | 8.74429 | 1199 ft | 143 kts | 346° |
| 2026-05-07 16:02 | 45.60430 | 8.74097 | 1085 ft | 160 kts | 351° |
| 2026-05-07 16:02 | 45.61494 | 8.73770 | 835 ft | 153 kts | 349° |
| 2026-05-07 16:02 | 45.62456 | 8.73505 | 743 ft | 127 kts | 348° |
| 2026-05-07 16:03 | 45.63121 | 8.73322 | 740 ft | 61 kts | 349° |
| 2026-05-07 16:03 | 45.63491 | 8.73220 | 743 ft | 52 kts | 348° |
| 2026-05-07 16:03 | 45.63728 | 8.73060 | 741 ft | 16 kts | 320° |
| 2026-05-07 16:03 | 45.63781 | 8.72987 | 742 ft | 11 kts | 313° |
| 2026-05-07 16:04 | 45.63824 | 8.72899 | 742 ft | 11 kts | 303° |
| 2026-05-07 16:04 | 45.63868 | 8.72802 | 743 ft | 12 kts | 305° |
| 2026-05-07 16:04 | 45.63918 | 8.72701 | 742 ft | 13 kts | 304° |
| 2026-05-07 16:04 | 45.63957 | 8.72583 | 743 ft | 14 kts | 277° |
| 2026-05-07 16:05 | 45.63942 | 8.72448 | 744 ft | 14 kts | 257° |
| 2026-05-07 16:05 | 45.63920 | 8.72304 | 743 ft | 15 kts | 257° |
| 2026-05-07 16:05 | 45.63907 | 8.72160 | 740 ft | 15 kts | 266° |
| 2026-05-07 16:05 | 45.63901 | 8.72006 | 743 ft | 16 kts | 266° |
| 2026-05-07 16:06 | 45.63868 | 8.71868 | 741 ft | 15 kts | 223° |
| 2026-05-07 16:06 | 45.63771 | 8.71839 | 741 ft | 15 kts | 173° |
| 2026-05-07 16:06 | 45.63666 | 8.71863 | 741 ft | 16 kts | 170° |
| 2026-05-07 16:06 | 45.63555 | 8.71892 | 742 ft | 16 kts | 170° |
| 2026-05-07 16:07 | 45.63442 | 8.71925 | 742 ft | 17 kts | 167° |
| 2026-05-07 16:07 | 45.63329 | 8.71919 | 743 ft | 16 kts | 217° |
| 2026-05-07 16:07 | 45.63291 | 8.71772 | 742 ft | 16 kts | 257° |
| 2026-05-07 16:07 | 45.63235 | 8.71679 | 743 ft | 3 kts | 205° |
| 2026-05-07 16:08 | 45.63229 | 8.71665 | 744 ft | 2 kts | 233° |
| 2026-05-07 16:08 | 45.63218 | 8.71642 | 744 ft | 3 kts | 233° |
| 2026-05-07 16:08 | 45.63202 | 8.71611 | 744 ft | 4 kts | 235° |
| 2026-05-07 16:08 | 45.63185 | 8.71573 | 744 ft | 3 kts | 237° |
| 2026-05-07 16:09 | 45.63181 | 8.71564 | 744 ft | 0 kts | 237° |
| 2026-05-07 16:09 | 45.63180 | 8.71561 | 744 ft | 1 kts | 237° |
| 2026-05-07 16:09 | 45.63179 | 8.71559 | 744 ft | 0 kts | 237° |